This is the latest recevied weather packets stored in our database for station/object VK4TOM-13. If no packets are shown the sender has not sent any weather packets the latest 10 day(s).
| Time | Temp. | Humidity | Pressure | Rain* | Wind** | Luminosity | Snow |
|---|---|---|---|---|---|---|---|
| 1777952030 | 30° C | 70% | 1013.7 hPa | 0 mm | - | - | - |
| 1777951429 | 30.56° C | 70% | 1013.9 hPa | 0 mm | - | - | - |
| 1777950828 | 30.56° C | 70% | 1014 hPa | 0 mm | - | - | - |
| 1777949625 | 30° C | 70% | 1014.3 hPa | 0 mm | - | - | - |
| 1777948424 | 28.89° C | 70% | 1014.4 hPa | 0 mm | - | - | - |
| 1777948237 | 28.89° C | 70% | 1014.5 hPa | 0 mm | - | - | - |
| 1777947897 | 28.89° C | 70% | 1014.6 hPa | 0 mm | - | - | - |
| 1777946695 | 28.33° C | 70% | 1014.8 hPa | 0 mm | - | - | - |
| 1777946094 | 28.33° C | 70% | 1015.3 hPa | 0 mm | - | - | - |
| 1777945493 | 28.33° C | 70% | 1015.4 hPa | 0 mm | - | - | - |
| 1777944892 | 28.33° C | 70% | 1015.3 hPa | 0 mm | - | - | - |
| 1777944291 | 28.89° C | 70% | 1015.6 hPa | 0 mm | - | - | - |
| 1777943690 | 28.33° C | 70% | 1015.5 hPa | 0 mm | - | - | - |
| 1777943089 | 27.78° C | 70% | 1015.7 hPa | 0 mm | - | - | - |
| 1777941486 | 25.56° C | 70% | 1016.4 hPa | 0 mm | - | - | - |
| 1777940884 | 25.56° C | 70% | 1016.4 hPa | 0 mm | - | - | - |
| 1777940283 | 25° C | 70% | 1016.6 hPa | 0 mm | - | - | - |
| 1777939682 | 25.56° C | 70% | 1016.5 hPa | 0 mm | - | - | - |
| 1777939081 | 25.56° C | 70% | 1016.5 hPa | 0 mm | - | - | - |
| 1777938480 | 25.56° C | 70% | 1016.9 hPa | 0 mm | - | - | - |
| 1777937879 | 25° C | 70% | 1017 hPa | 0 mm | - | - | - |
| 1777937278 | 25° C | 70% | 1017 hPa | 0 mm | - | - | - |
| 1777936677 | 24.44° C | 70% | 1017.1 hPa | 0 mm | - | - | - |
| 1777936076 | 25° C | 70% | 1016.9 hPa | 0 mm | - | - | - |
| 1777935475 | 25° C | 70% | 1017.1 hPa | 0 mm | - | - | - |
* Rain since midnight (hover to see other rain measurements)
** Current wind speed in m/s (hover to see current wind gust speed)